Washoe, Montana
Current Conditions -  °F | °C
As of 11:55 AM on Sunday 23 Nov 2014 (Local Time) from KPOY Reporting Station
Scattered Clouds Scattered Clouds  
Wind Chill: 22°   Ceiling: Unl
Heat Index: 32°   Visibility: 10mi
Dew Point: 14°   Wind: 15mph
Humidity: 47%   Direction: 330°NNW
Pressure: 29.88"   Gusts: 22mph
Location:  45.1631°N, 109.103°W
Report Text: KPOY 231855Z AUTO 33013G19KT 10SM SCT090 SCT120 00/M10 A2988 RMK AO2
Loading
Personal Weather Stations






























Interactive Weather Map New forecast layout! Learn more

10-Day Weather Forecast

Advertisements
Track Severe Weather on mobile